Time;durP1;ratioP1;P1;durP2;ratioP2;P2;SDS_P1;SDS_P2;PMS_P1;PMS_P2;Temp;Humidity;BMP_temperature;BMP_pressure;BME280_temperature;BME280_humidity;BME280_pressure;Samples;Min_cycle;Max_cycle;Signal;HPM_P1;HPM_P2
2022/01/11 00:01:41;;;;;;;0.00;0.00;;;2.10;99.90;;;;;;6109984;23;20078;-75
2022/01/11 00:04:07;;;;;;;0.00;0.00;;;2.10;99.90;;;;;;6135527;23;20046;-75
2022/01/11 00:06:42;;;;;;;0.00;0.00;;;2.00;99.90;;;;;;6136404;23;20149;-75
2022/01/11 00:09:19;;;;;;;0.00;0.00;;;1.90;99.90;;;;;;6135448;23;19994;-75
2022/01/11 00:11:50;;;;;;;0.00;0.00;;;1.90;99.90;;;;;;6109960;23;20021;-72
2022/01/11 00:14:15;;;;;;;0.00;0.00;;;1.90;99.90;;;;;;6135394;23;20054;-71
2022/01/11 00:16:41;;;;;;;0.00;0.00;;;1.80;99.90;;;;;;6110056;23;20324;-72
2022/01/11 00:19:07;;;;;;;0.00;0.00;;;1.80;99.90;;;;;;6114898;23;20351;-71
2022/01/11 00:21:37;;;;;;;0.00;0.00;;;1.70;99.90;;;;;;6165618;23;20037;-76
2022/01/11 00:26:47;;;;;;;0.00;0.00;;;1.70;99.90;;;;;;6165133;23;20001;-74
2022/01/11 00:29:13;;;;;;;0.00;0.00;;;1.70;99.90;;;;;;6164134;23;19993;-75
2022/01/11 00:31:40;;;;;;;0.00;0.00;;;1.70;99.90;;;;;;6163763;23;20181;-74
2022/01/11 00:34:07;;;;;;;0.00;0.00;;;1.70;99.90;;;;;;6164463;23;19986;-74
2022/01/11 00:36:42;;;;;;;0.00;0.00;;;1.80;99.90;;;;;;6164896;23;20005;-75
2022/01/11 00:39:09;;;;;;;0.00;0.00;;;1.70;99.90;;;;;;6162628;23;20010;-75
2022/01/11 00:41:41;;;;;;;0.00;0.00;;;1.80;99.90;;;;;;6165322;23;20288;-72
2022/01/11 00:44:08;;;;;;;0.00;0.00;;;1.70;99.90;;;;;;6187265;23;20024;-72
2022/01/11 00:46:34;;;;;;;0.00;0.00;;;1.70;99.90;;;;;;6164809;23;19996;-72
2022/01/11 00:49:00;;;;;;;0.00;0.00;;;1.70;99.90;;;;;;6164335;23;20000;-72
2022/01/11 00:51:26;;;;;;;0.00;0.00;;;1.80;99.90;;;;;;6163707;23;20294;-72
2022/01/11 00:53:53;;;;;;;0.00;0.00;;;1.70;99.90;;;;;;6164998;23;19989;-72
2022/01/11 00:56:18;;;;;;;0.00;0.00;;;1.70;99.90;;;;;;6163994;23;19985;-72
2022/01/11 00:58:44;;;;;;;0.00;0.00;;;1.70;99.90;;;;;;6164795;23;20000;-73
2022/01/11 01:01:10;;;;;;;0.00;0.00;;;1.70;99.90;;;;;;6164477;23;20293;-81
2022/01/11 01:03:37;;;;;;;0.00;0.00;;;1.60;99.90;;;;;;6164816;23;19989;-81
2022/01/11 01:06:21;;;;;;;0.00;0.00;;;1.60;99.90;;;;;;6162670;23;20029;-81
2022/01/11 01:08:47;;;;;;;0.00;0.00;;;1.50;99.90;;;;;;6165105;23;20001;-81
2022/01/11 01:11:13;;;;;;;0.00;0.00;;;1.50;99.90;;;;;;6188012;23;20056;-82
2022/01/11 01:13:39;;;;;;;0.00;0.00;;;1.50;99.90;;;;;;6163985;23;20186;-82
2022/01/11 01:16:05;;;;;;;0.00;0.00;;;1.50;99.90;;;;;;6164337;23;19997;-80
2022/01/11 01:18:33;;;;;;;0.00;0.00;;;1.50;99.90;;;;;;6165240;23;20055;-81
2022/01/11 01:20:59;;;;;;;0.00;0.00;;;1.50;99.90;;;;;;6136290;23;20312;-81
2022/01/11 01:23:25;;;;;;;0.00;0.00;;;1.50;99.90;;;;;;6109184;23;19990;-82
2022/01/11 01:25:51;;;;;;;0.00;0.00;;;1.40;99.90;;;;;;6135947;23;20166;-82
2022/01/11 01:28:18;;;;;;;0.00;0.00;;;1.40;99.90;;;;;;6109124;23;20009;-82
2022/01/11 01:30:44;;;;;;;0.00;0.00;;;1.40;99.90;;;;;;6135662;23;20349;-82
2022/01/11 01:33:10;;;;;;;0.00;0.00;;;1.40;99.90;;;;;;6109110;23;20068;-83
2022/01/11 01:35:39;;;;;;;0.00;0.00;;;1.50;99.90;;;;;;6135977;23;20217;-82
2022/01/11 01:38:12;;;;;;;0.00;0.00;;;1.40;99.90;;;;;;6109587;23;20010;-81
2022/01/11 01:40:44;;;;;;;0.00;0.00;;;1.50;99.90;;;;;;6110053;23;20004;-81
2022/01/11 01:43:12;;;;;;;0.00;0.00;;;1.60;99.90;;;;;;6109188;23;20040;-81
2022/01/11 01:45:39;;;;;;;0.00;0.00;;;1.60;99.90;;;;;;6109894;23;20053;-81
2022/01/11 01:48:07;;;;;;;0.00;0.00;;;1.60;99.90;;;;;;6108935;23;19994;-81
2022/01/11 01:50:33;;;;;;;0.00;0.00;;;1.50;99.90;;;;;;6135432;23;19990;-77
2022/01/11 01:53:01;;;;;;;0.00;0.00;;;1.60;99.90;;;;;;6109004;23;20028;-77
2022/01/11 01:55:28;;;;;;;0.00;0.00;;;1.50;99.90;;;;;;6108214;23;20013;-77
2022/01/11 01:57:54;;;;;;;0.00;0.00;;;1.50;99.90;;;;;;6109384;23;19994;-78
2022/01/11 02:00:20;;;;;;;0.00;0.00;;;1.60;99.90;;;;;;6108640;23;20004;-77
2022/01/11 02:02:46;;;;;;;0.00;0.00;;;1.60;99.90;;;;;;6109169;23;20208;-78
2022/01/11 02:05:12;;;;;;;0.00;0.00;;;1.60;99.90;;;;;;6108137;23;19994;-77
2022/01/11 02:07:38;;;;;;;0.00;0.00;;;1.50;99.90;;;;;;6106768;23;20018;-77
2022/01/11 02:10:07;;;;;;;0.00;0.00;;;1.60;99.90;;;;;;6108359;23;20005;-76
2022/01/11 02:12:34;;;;;;;0.00;0.00;;;1.70;99.90;;;;;;6108006;23;20010;-75
2022/01/11 02:15:00;;;;;;;0.00;0.00;;;1.70;99.90;;;;;;6108327;23;19994;-75
2022/01/11 02:17:28;;;;;;;0.00;0.00;;;1.80;99.90;;;;;;6108111;23;20194;-74
2022/01/11 02:19:57;;;;;;;0.00;0.00;;;1.80;99.90;;;;;;6134526;23;20343;-75
2022/01/11 02:22:26;;;;;;;0.00;0.00;;;1.70;99.90;;;;;;6133832;23;19998;-74
2022/01/11 02:24:53;;;;;;;0.00;0.00;;;1.60;99.90;;;;;;6135276;23;19986;-75
2022/01/11 02:27:19;;;;;;;0.00;0.00;;;1.60;99.90;;;;;;6133957;23;19986;-76
2022/01/11 02:29:45;;;;;;;0.00;0.00;;;1.60;99.90;;;;;;6134735;23;19997;-72
2022/01/11 02:32:11;;;;;;;0.00;0.00;;;1.60;99.90;;;;;;6108698;23;19998;-71
2022/01/11 02:34:37;;;;;;;0.00;0.00;;;1.50;99.90;;;;;;6109232;23;19994;-71
2022/01/11 02:37:04;;;;;;;0.00;0.00;;;1.50;99.90;;;;;;6135243;23;19998;-73
2022/01/11 02:39:30;;;;;;;0.00;0.00;;;1.50;99.90;;;;;;6108559;23;20289;-74
2022/01/11 02:41:57;;;;;;;0.00;0.00;;;1.70;99.90;;;;;;6109300;23;20217;-74
2022/01/11 02:44:23;;;;;;;0.00;0.00;;;1.70;99.90;;;;;;6134404;23;19987;-74
2022/01/11 02:46:50;;;;;;;0.00;0.00;;;1.60;99.90;;;;;;6135000;23;19997;-73
2022/01/11 02:49:16;;;;;;;0.00;0.00;;;1.60;99.90;;;;;;6134174;23;19994;-72
2022/01/11 02:51:42;;;;;;;0.00;0.00;;;1.60;99.90;;;;;;6134917;23;19998;-73
2022/01/11 02:54:09;;;;;;;0.00;0.00;;;1.70;99.90;;;;;;6109023;23;20082;-73
2022/01/11 02:56:35;;;;;;;0.00;0.00;;;1.70;99.90;;;;;;6134635;23;19997;-72
2022/01/11 02:59:02;;;;;;;0.00;0.00;;;1.60;99.90;;;;;;6134986;23;19994;-73
2022/01/11 03:01:28;;;;;;;0.00;0.00;;;1.60;99.90;;;;;;6107909;23;19997;-73
2022/01/11 03:03:54;;;;;;;0.00;0.00;;;1.60;99.90;;;;;;6108860;23;20016;-73
2022/01/11 03:06:20;;;;;;;0.00;0.00;;;1.70;99.90;;;;;;6134951;23;19994;-72
2022/01/11 03:08:47;;;;;;;0.00;0.00;;;1.60;99.90;;;;;;6110878;23;20041;-73
2022/01/11 03:11:18;;;;;;;0.00;0.00;;;1.50;99.90;;;;;;6110279;23;19998;-73
2022/01/11 03:13:44;;;;;;;0.00;0.00;;;1.60;99.90;;;;;;6107458;23;20018;-74
2022/01/11 03:16:12;;;;;;;0.00;0.00;;;1.50;99.90;;;;;;6102038;23;20053;-74
2022/01/11 03:18:38;;;;;;;0.00;0.00;;;1.60;99.90;;;;;;6102242;23;20006;-73
2022/01/11 03:21:04;;;;;;;0.00;0.00;;;1.60;99.90;;;;;;6128465;23;20057;-74
2022/01/11 03:23:30;;;;;;;0.00;0.00;;;1.60;99.90;;;;;;6127877;23;20215;-74
2022/01/11 03:25:56;;;;;;;0.00;0.00;;;1.60;99.90;;;;;;6129052;23;20608;-74
2022/01/11 03:28:24;;;;;;;0.00;0.00;;;1.60;99.90;;;;;;6128196;23;20057;-74
2022/01/11 03:30:51;;;;;;;0.00;0.00;;;1.60;99.90;;;;;;6129028;23;20049;-74
2022/01/11 03:33:18;;;;;;;0.00;0.00;;;1.60;99.90;;;;;;6128573;23;20338;-74
2022/01/11 03:35:44;;;;;;;0.00;0.00;;;1.60;99.90;;;;;;6104443;23;20032;-74
2022/01/11 03:38:12;;;;;;;0.00;0.00;;;1.60;99.90;;;;;;6103072;23;20320;-73
2022/01/11 03:40:39;;;;;;;0.00;0.00;;;1.50;99.90;;;;;;6103245;23;20029;-74
2022/01/11 03:43:05;;;;;;;0.00;0.00;;;1.50;99.90;;;;;;6129057;23;20213;-74
2022/01/11 03:45:32;;;;;;;0.00;0.00;;;1.50;99.90;;;;;;6130456;23;20228;-74
2022/01/11 03:48:00;;;;;;;0.00;0.00;;;1.50;99.90;;;;;;6136290;23;20204;-74
2022/01/11 03:50:26;;;;;;;0.00;0.00;;;1.50;99.90;;;;;;6109555;23;19998;-74
2022/01/11 03:52:59;;;;;;;0.00;0.00;;;1.40;99.90;;;;;;6110780;23;20188;-74
2022/01/11 03:56:09;;;;;;;0.00;0.00;;;1.30;99.90;;;;;;6109866;23;20082;-74
2022/01/11 03:58:14;;;;;;;0.00;0.00;;;1.40;99.90;;;;;;6134422;23;19998;-74
2022/01/11 04:00:41;;;;;;;0.00;0.00;;;1.40;99.90;;;;;;6135729;23;20166;-74
2022/01/11 04:03:06;;;;;;;0.00;0.00;;;1.40;99.90;;;;;;6136179;23;19986;-74
2022/01/11 04:05:32;;;;;;;0.00;0.00;;;1.40;99.90;;;;;;6135139;23;20298;-74
2022/01/11 04:07:58;;;;;;;0.00;0.00;;;1.50;99.90;;;;;;6135813;23;19997;-74
2022/01/11 04:10:24;;;;;;;0.00;0.00;;;1.50;99.90;;;;;;6135340;23;20110;-73
2022/01/11 04:12:50;;;;;;;0.00;0.00;;;1.40;99.90;;;;;;6135921;23;20033;-71
2022/01/11 04:15:16;;;;;;;0.00;0.00;;;1.40;99.90;;;;;;6109549;23;20217;-72
2022/01/11 04:17:42;;;;;;;0.00;0.00;;;1.50;99.90;;;;;;6109458;23;20061;-72
2022/01/11 04:20:09;;;;;;;0.00;0.00;;;1.50;99.90;;;;;;6135732;23;20315;-72
2022/01/11 04:22:35;;;;;;;0.00;0.00;;;1.40;99.90;;;;;;6135390;23;19994;-71
2022/01/11 04:25:01;;;;;;;0.00;0.00;;;1.50;99.90;;;;;;6110309;23;20277;-72
2022/01/11 04:27:27;;;;;;;0.00;0.00;;;1.40;99.90;;;;;;6109454;23;19994;-71
2022/01/11 04:29:52;;;;;;;0.00;0.00;;;1.50;99.90;;;;;;6135912;23;19990;-73
2022/01/11 04:32:18;;;;;;;0.00;0.00;;;1.50;99.90;;;;;;6109376;23;20158;-75
2022/01/11 04:34:44;;;;;;;0.00;0.00;;;1.50;99.90;;;;;;6109623;23;20020;-74
2022/01/11 04:37:10;;;;;;;0.00;0.00;;;1.50;99.90;;;;;;6110065;23;20014;-74
2022/01/11 04:39:36;;;;;;;0.00;0.00;;;1.50;99.90;;;;;;6135010;23;20002;-74
2022/01/11 04:42:02;;;;;;;0.00;0.00;;;1.40;99.90;;;;;;6110173;23;20227;-75
2022/01/11 04:44:28;;;;;;;0.00;0.00;;;1.50;99.90;;;;;;6134950;23;20226;-75
2022/01/11 04:46:54;;;;;;;0.00;0.00;;;1.60;99.90;;;;;;6135813;23;20113;-74
2022/01/11 04:49:20;;;;;;;0.00;0.00;;;1.50;99.90;;;;;;6134945;23;19990;-74
2022/01/11 04:51:46;;;;;;;0.00;0.00;;;1.50;99.90;;;;;;6109987;23;20005;-75
2022/01/11 04:54:13;;;;;;;0.00;0.00;;;1.40;99.90;;;;;;6110061;23;20010;-74
2022/01/11 04:56:38;;;;;;;0.00;0.00;;;1.40;99.90;;;;;;6109067;23;20001;-74
2022/01/11 04:59:06;;;;;;;0.00;0.00;;;1.40;99.90;;;;;;6135888;23;19990;-74
2022/01/11 05:01:32;;;;;;;0.00;0.00;;;1.40;99.90;;;;;;6109122;23;19990;-75
2022/01/11 05:03:58;;;;;;;0.00;0.00;;;1.40;99.90;;;;;;6109612;23;20057;-75
2022/01/11 05:06:24;;;;;;;0.00;0.00;;;1.40;99.90;;;;;;6134768;23;20033;-75
2022/01/11 05:08:49;;;;;;;0.00;0.00;;;1.40;99.90;;;;;;6135804;23;19990;-74
2022/01/11 05:11:17;;;;;;;0.00;0.00;;;1.50;99.90;;;;;;6135599;23;19993;-75
2022/01/11 05:13:42;;;;;;;0.00;0.00;;;1.40;99.90;;;;;;6135757;23;20327;-75
2022/01/11 05:16:09;;;;;;;0.00;0.00;;;1.40;99.90;;;;;;6102886;23;20059;-78
2022/01/11 05:18:36;;;;;;;0.00;0.00;;;1.40;99.90;;;;;;6128885;23;20048;-76
2022/01/11 05:21:03;;;;;;;0.00;0.00;;;1.40;99.90;;;;;;6127098;23;20403;-75
2022/01/11 05:23:29;;;;;;;0.00;0.00;;;1.30;99.90;;;;;;6101296;23;20622;-76
2022/01/11 05:25:55;;;;;;;0.00;0.00;;;1.30;99.90;;;;;;6127642;23;19998;-76
2022/01/11 05:28:21;;;;;;;0.00;0.00;;;1.30;99.90;;;;;;6127161;23;20029;-75
2022/01/11 05:30:47;;;;;;;0.00;0.00;;;1.30;99.90;;;;;;6127494;23;20001;-74
2022/01/11 05:33:13;;;;;;;0.00;0.00;;;1.50;99.90;;;;;;6127451;23;20068;-75
2022/01/11 05:35:39;;;;;;;0.00;0.00;;;1.50;99.90;;;;;;6100935;23;20324;-73
2022/01/11 05:38:04;;;;;;;0.00;0.00;;;1.50;99.90;;;;;;6127778;23;19996;-75
2022/01/11 05:40:30;;;;;;;0.00;0.00;;;1.50;99.90;;;;;;6100775;23;20001;-75
2022/01/11 05:42:56;;;;;;;0.00;0.00;;;1.40;99.90;;;;;;6101371;23;20188;-75
2022/01/11 05:45:22;;;;;;;0.00;0.00;;;1.40;99.90;;;;;;6126658;23;20300;-75
2022/01/11 05:47:52;;;;;;;0.00;0.00;;;1.50;99.90;;;;;;6100868;23;20021;-75
2022/01/11 05:50:20;;;;;;;0.00;0.00;;;1.40;99.90;;;;;;6100417;23;20006;-74
2022/01/11 05:52:46;;;;;;;0.00;0.00;;;1.30;99.90;;;;;;6101411;23;20029;-76
2022/01/11 05:55:13;;;;;;;0.00;0.00;;;1.30;99.90;;;;;;6100474;23;20409;-73
2022/01/11 05:57:41;;;;;;;0.00;0.00;;;1.40;99.90;;;;;;6127102;23;20070;-74
2022/01/11 06:00:10;;;;;;;0.00;0.00;;;1.40;99.90;;;;;;6101794;23;20018;-75
2022/01/11 06:02:36;;;;;;;0.00;0.00;;;1.40;99.90;;;;;;6126574;23;19994;-74
2022/01/11 06:05:03;;;;;;;0.00;0.00;;;1.30;99.90;;;;;;6127467;23;19998;-74
2022/01/11 06:07:29;;;;;;;0.00;0.00;;;1.30;99.90;;;;;;6103254;23;20296;-74
2022/01/11 06:09:55;;;;;;;0.00;0.00;;;1.30;99.90;;;;;;6108843;23;20028;-71
2022/01/11 06:12:21;;;;;;;0.00;0.00;;;1.30;99.90;;;;;;6134124;23;19994;-77
2022/01/11 06:14:47;;;;;;;0.00;0.00;;;1.40;99.90;;;;;;6134859;23;20047;-75
2022/01/11 06:17:12;;;;;;;0.00;0.00;;;1.40;99.90;;;;;;6134897;23;19997;-80
2022/01/11 06:19:38;;;;;;;0.00;0.00;;;1.40;99.90;;;;;;6127089;23;20199;-78
2022/01/11 06:22:04;;;;;;;0.00;0.00;;;1.30;99.90;;;;;;6164925;23;20020;-79
2022/01/11 06:24:30;;;;;;;0.00;0.00;;;1.30;99.90;;;;;;6163774;23;20244;-72
2022/01/11 06:26:56;;;;;;;0.00;0.00;;;1.30;99.90;;;;;;6161444;23;20090;-73
2022/01/11 06:29:21;;;;;;;0.00;0.00;;;1.30;99.90;;;;;;6160354;23;19997;-77
2022/01/11 06:31:47;;;;;;;0.00;0.00;;;1.30;99.90;;;;;;6165466;23;20013;-81
2022/01/11 06:34:13;;;;;;;0.00;0.00;;;1.30;99.90;;;;;;6164883;23;20145;-77
2022/01/11 06:36:39;;;;;;;0.00;0.00;;;1.30;99.90;;;;;;6165182;23;19996;-80
2022/01/11 06:39:04;;;;;;;0.00;0.00;;;1.30;99.90;;;;;;6165632;23;20040;-72
2022/01/11 06:41:30;;;;;;;0.00;0.00;;;1.30;99.90;;;;;;6159034;23;19997;-78
2022/01/11 06:43:56;;;;;;;0.00;0.00;;;1.30;99.90;;;;;;6157469;23;20180;-82
2022/01/11 06:46:24;;;;;;;0.00;0.00;;;1.30;99.90;;;;;;6158127;23;19997;-70
2022/01/11 06:48:51;;;;;;;0.00;0.00;;;1.40;99.90;;;;;;6156077;23;20069;-78
2022/01/11 06:51:18;;;;;;;0.00;0.00;;;1.50;99.90;;;;;;6156325;23;20062;-77
2022/01/11 06:53:45;;;;;;;0.00;0.00;;;1.40;99.90;;;;;;6155133;23;19994;-73
2022/01/11 06:56:10;;;;;;;0.00;0.00;;;1.50;99.90;;;;;;6156895;23;20005;-83
2022/01/11 06:58:38;;;;;;;0.00;0.00;;;1.40;99.90;;;;;;6156281;23;20009;-75
2022/01/11 07:01:04;;;;;;;0.00;0.00;;;1.30;99.90;;;;;;6157228;23;19994;-80
2022/01/11 07:03:30;;;;;;;0.00;0.00;;;1.30;99.90;;;;;;6154848;23;19997;-81
2022/01/11 07:05:56;;;;;;;0.00;0.00;;;1.20;99.90;;;;;;6180729;23;20036;-78
2022/01/11 07:08:22;;;;;;;0.00;0.00;;;1.30;99.90;;;;;;6159134;23;19989;-77
2022/01/11 07:10:47;;;;;;;0.00;0.00;;;1.30;99.90;;;;;;6163470;23;20293;-80
2022/01/11 07:13:14;;;;;;;0.00;0.00;;;1.40;99.90;;;;;;6161355;23;20197;-78
2022/01/11 07:15:39;;;;;;;0.00;0.00;;;1.40;99.90;;;;;;6162684;23;19997;-80
2022/01/11 07:18:09;;;;;;;0.00;0.00;;;1.40;99.90;;;;;;6187046;23;20198;-79
2022/01/11 07:20:37;;;;;;;0.00;0.00;;;1.40;99.90;;;;;;6161542;23;20013;-78
2022/01/11 07:23:04;;;;;;;0.00;0.00;;;1.30;99.90;;;;;;6163054;23;19986;-78
2022/01/11 07:25:33;;;;;;;0.00;0.00;;;1.30;99.90;;;;;;6160405;23;20001;-79
2022/01/11 07:27:59;;;;;;;0.00;0.00;;;1.30;99.90;;;;;;6163241;23;19993;-76
2022/01/11 07:30:26;;;;;;;0.00;0.00;;;1.30;99.90;;;;;;6160647;23;20005;-79
2022/01/11 07:32:52;;;;;;;0.00;0.00;;;1.30;99.90;;;;;;6162059;23;20006;-79
2022/01/11 07:35:18;;;;;;;0.00;0.00;;;1.20;99.90;;;;;;6163006;23;19989;-79
2022/01/11 07:37:45;;;;;;;0.00;0.00;;;1.20;99.90;;;;;;6162685;23;19990;-79
2022/01/11 07:40:11;;;;;;;0.00;0.00;;;1.20;99.90;;;;;;6163541;23;19994;-80
2022/01/11 07:42:38;;;;;;;0.00;0.00;;;1.20;99.90;;;;;;6162818;23;19990;-80
2022/01/11 07:45:04;;;;;;;0.00;0.00;;;1.20;99.90;;;;;;6162216;23;19990;-80
2022/01/11 07:47:30;;;;;;;0.00;0.00;;;1.20;99.90;;;;;;6160481;23;19997;-79
2022/01/11 07:49:56;;;;;;;0.00;0.00;;;1.20;99.90;;;;;;6186851;23;20094;-79
2022/01/11 07:52:22;;;;;;;0.00;0.00;;;1.30;99.90;;;;;;6161475;23;20174;-75
2022/01/11 07:54:48;;;;;;;0.00;0.00;;;1.20;99.90;;;;;;6163736;23;20020;-77
2022/01/11 07:57:14;;;;;;;0.00;0.00;;;1.20;99.90;;;;;;6164691;23;19989;-79
2022/01/11 07:59:40;;;;;;;0.00;0.00;;;1.20;99.90;;;;;;6164061;23;20020;-78
2022/01/11 08:02:06;;;;;;;0.00;0.00;;;1.10;99.90;;;;;;6165265;23;19997;-82
2022/01/11 08:04:32;;;;;;;0.00;0.00;;;1.10;99.90;;;;;;6164573;23;20349;-82
2022/01/11 08:07:01;;;;;;;0.00;0.00;;;1.10;99.90;;;;;;6167294;23;20273;-79
2022/01/11 08:09:28;;;;;;;0.00;0.00;;;1.10;99.90;;;;;;6187218;23;20335;-80
2022/01/11 08:11:58;;;;;;;0.00;0.00;;;1.20;99.90;;;;;;6164523;23;20013;-77
2022/01/11 08:14:43;;;;;;;0.00;0.00;;;1.20;99.90;;;;;;6163987;23;19990;-76
2022/01/11 08:17:09;;;;;;;0.00;0.00;;;1.20;99.90;;;;;;6187804;23;19990;-76
2022/01/11 08:19:35;;;;;;;0.00;0.00;;;1.20;99.90;;;;;;6151575;23;20025;-77
2022/01/11 08:22:01;;;;;;;0.00;0.00;;;1.20;99.90;;;;;;6134368;23;20348;-76
2022/01/11 08:24:26;;;;;;;0.00;0.00;;;1.20;99.90;;;;;;6134111;23;19990;-75
2022/01/11 08:26:56;;;;;;;0.00;0.00;;;1.30;99.90;;;;;;6134847;23;19993;-79
2022/01/11 08:29:23;;;;;;;0.00;0.00;;;1.30;99.90;;;;;;6134241;23;19998;-71
2022/01/11 08:31:50;;;;;;;0.00;0.00;;;1.20;99.90;;;;;;6135030;23;19994;-76
2022/01/11 08:34:16;;;;;;;0.00;0.00;;;1.30;99.90;;;;;;6134104;23;20225;-75
2022/01/11 08:36:44;;;;;;;0.00;0.00;;;1.40;99.90;;;;;;6133968;23;20133;-75
2022/01/11 08:39:11;;;;;;;0.00;0.00;;;1.40;99.90;;;;;;6106982;23;20311;-75
2022/01/11 08:41:38;;;;;;;0.00;0.00;;;1.40;99.90;;;;;;6133489;23;20509;-76
2022/01/11 08:44:11;;;;;;;0.00;0.00;;;1.30;99.90;;;;;;6109008;23;20316;-79
2022/01/11 08:46:43;;;;;;;0.00;0.00;;;1.40;99.90;;;;;;6133825;23;20277;-76
2022/01/11 08:49:10;;;;;;;0.00;0.00;;;1.30;99.90;;;;;;6108615;23;20066;-75
2022/01/11 08:51:37;;;;;;;0.00;0.00;;;1.40;99.90;;;;;;6107688;23;20324;-75
2022/01/11 08:54:03;;;;;;;0.00;0.00;;;1.30;99.90;;;;;;6134583;23;19993;-76
2022/01/11 08:56:30;;;;;;;0.00;0.00;;;1.40;99.90;;;;;;6105407;23;20355;-76
2022/01/11 08:58:55;;;;;;;0.00;0.00;;;1.30;99.90;;;;;;6108496;23;20045;-77
2022/01/11 09:01:21;;;;;;;0.00;0.00;;;1.30;99.90;;;;;;6108696;23;19990;-76
2022/01/11 09:03:48;;;;;;;0.00;0.00;;;1.30;99.90;;;;;;6107925;23;20277;-75
2022/01/11 09:06:14;;;;;;;0.00;0.00;;;1.30;99.90;;;;;;6134086;23;20014;-78
2022/01/11 09:08:39;;;;;;;0.00;0.00;;;1.40;99.90;;;;;;6133395;23;20053;-78
2022/01/11 09:11:06;;;;;;;0.00;0.00;;;1.40;99.90;;;;;;6108096;23;20005;-78
2022/01/11 09:13:33;;;;;;;0.00;0.00;;;1.40;99.90;;;;;;6107183;23;20002;-77
2022/01/11 09:15:58;;;;;;;0.00;0.00;;;1.40;99.90;;;;;;6108807;23;19994;-78
2022/01/11 09:18:24;;;;;;;0.00;0.00;;;1.50;99.90;;;;;;6107255;23;20311;-76
2022/01/11 09:20:50;;;;;;;0.00;0.00;;;1.50;99.90;;;;;;6134841;23;20084;-77
2022/01/11 09:23:16;;;;;;;0.00;0.00;;;1.40;99.90;;;;;;6108260;23;20005;-77
2022/01/11 09:25:42;;;;;;;0.00;0.00;;;1.40;99.90;;;;;;6133848;23;19989;-77
2022/01/11 09:28:07;;;;;;;0.00;0.00;;;1.40;99.90;;;;;;6108414;23;20280;-76
2022/01/11 09:30:33;;;;;;;0.00;0.00;;;1.40;99.90;;;;;;6133633;23;20037;-76
2022/01/11 09:32:59;;;;;;;0.00;0.00;;;1.40;99.90;;;;;;6134291;23;19997;-76
2022/01/11 09:35:25;;;;;;;0.00;0.00;;;1.40;99.90;;;;;;6133309;23;19990;-75
2022/01/11 09:37:51;;;;;;;0.00;0.00;;;1.40;99.90;;;;;;6108516;23;20281;-77
2022/01/11 09:40:18;;;;;;;0.00;0.00;;;1.40;99.90;;;;;;6133516;23;19994;-77
2022/01/11 09:42:44;;;;;;;0.00;0.00;;;1.40;99.90;;;;;;6128934;23;20289;-73
2022/01/11 09:45:11;;;;;;;0.00;0.00;;;1.40;99.90;;;;;;6107386;23;20245;-74
2022/01/11 09:47:41;;;;;;;0.00;0.00;;;1.40;99.90;;;;;;6133295;23;19994;-78
2022/01/11 09:50:10;;;;;;;0.00;0.00;;;1.40;99.90;;;;;;6108059;23;20014;-79
2022/01/11 09:52:36;;;;;;;;;;;1.40;99.90;;;;;;6133099;23;20041;-76
2022/01/11 09:55:05;;;;;;;0.00;0.00;;;1.30;99.90;;;;;;6130290;23;19916;-82
2022/01/11 09:57:31;;;;;;;0.00;0.00;;;1.30;99.90;;;;;;6130495;23;20319;-77
2022/01/11 09:59:57;;;;;;;0.00;0.00;;;1.40;99.90;;;;;;6106981;23;20359;-78
2022/01/11 10:02:23;;;;;;;0.00;0.00;;;1.40;99.90;;;;;;6107458;23;19994;-76
2022/01/11 10:04:58;;;;;;;0.00;0.00;;;1.40;99.90;;;;;;6107260;23;20065;-76
2022/01/11 10:07:43;;;;;;;0.00;0.00;;;1.40;99.90;;;;;;6106291;23;20002;-76
2022/01/11 10:10:19;;;;;;;0.00;0.00;;;1.50;99.90;;;;;;6133373;23;20271;-76
2022/01/11 10:12:48;;;;;;;0.00;0.00;;;1.60;99.90;;;;;;6133177;23;20209;-74
2022/01/11 10:15:14;;;;;;;0.00;0.00;;;1.60;99.90;;;;;;6132737;23;20062;-76
2022/01/11 10:17:44;;;;;;;0.00;0.00;;;1.60;99.90;;;;;;6132587;23;19986;-76
2022/01/11 10:20:16;;;;;;;0.00;0.00;;;1.60;99.90;;;;;;6133279;23;20006;-77
2022/01/11 10:23:02;;;;;;;0.00;0.00;;;1.70;99.90;;;;;;6133171;23;20021;-75
2022/01/11 10:25:31;;;;;;;0.00;0.00;;;1.60;99.90;;;;;;6132729;23;19990;-72
2022/01/11 10:28:03;;;;;;;0.00;0.00;;;1.60;99.90;;;;;;6083794;23;19994;-72
2022/01/11 10:30:30;;;;;;;0.00;0.00;;;1.70;99.90;;;;;;6083312;23;20041;-78
2022/01/11 10:33:00;;;;;;;0.00;0.00;;;1.70;99.90;;;;;;6133446;23;19993;-74
2022/01/11 10:35:42;;;;;;;0.00;0.00;;;1.70;99.90;;;;;;6106724;23;20053;-80
2022/01/11 10:38:12;;;;;;;0.00;0.00;;;1.70;99.90;;;;;;6133810;23;20192;-79
2022/01/11 10:40:44;;;;;;;0.00;0.00;;;1.70;99.90;;;;;;6132502;23;20444;-79
2022/01/11 10:43:13;;;;;;;0.00;0.00;;;1.60;99.90;;;;;;6107510;23;20219;-79
2022/01/11 10:45:52;;;;;;;0.00;0.00;;;1.60;99.90;;;;;;6106864;23;20433;-78
2022/01/11 10:48:21;;;;;;;0.00;0.00;;;1.70;99.90;;;;;;6107585;23;20028;-74
2022/01/11 10:50:49;;;;;;;0.00;0.00;;;1.70;99.90;;;;;;6107146;23;20269;-80
2022/01/11 10:53:24;;;;;;;0.00;0.00;;;1.60;99.90;;;;;;6106771;23;20002;-78
2022/01/11 10:55:58;;;;;;;0.00;0.00;;;1.50;99.90;;;;;;6133119;23;20054;-79
2022/01/11 10:58:24;;;;;;;0.00;0.00;;;1.50;99.90;;;;;;6130489;23;20001;-82
2022/01/11 11:00:53;;;;;;;0.00;0.00;;;1.50;99.90;;;;;;6106040;23;20009;-80
2022/01/11 11:03:27;;;;;;;0.00;0.00;;;1.60;99.90;;;;;;6105413;23;20297;-74
2022/01/11 11:06:07;;;;;;;0.00;0.00;;;1.70;99.90;;;;;;6106714;23;19994;-80
2022/01/11 11:08:38;;;;;;;0.00;0.00;;;1.80;99.90;;;;;;6132109;23;20053;-82
2022/01/11 11:11:11;;;;;;;0.00;0.00;;;1.80;99.90;;;;;;6106560;23;20005;-80
2022/01/11 11:13:45;;;;;;;0.00;0.00;;;1.70;99.90;;;;;;6098984;23;20020;-80
2022/01/11 11:16:25;;;;;;;0.00;0.00;;;1.80;99.90;;;;;;6133017;23;19990;-74
2022/01/11 11:19:01;;;;;;;0.00;0.00;;;1.80;99.90;;;;;;6133203;23;19990;-80
2022/01/11 11:21:32;;;;;;;0.00;0.00;;;1.70;99.90;;;;;;6106341;23;20053;-81
2022/01/11 11:24:10;;;;;;;0.00;0.00;;;1.60;99.90;;;;;;6134025;23;20017;-79
2022/01/11 11:26:44;;;;;;;0.00;0.00;;;1.50;99.90;;;;;;6106738;23;19997;-80
2022/01/11 11:29:11;;;;;;;0.00;0.00;;;1.50;99.90;;;;;;6133307;23;19990;-80
2022/01/11 11:31:38;;;;;;;0.00;0.00;;;1.50;99.90;;;;;;6107450;23;20041;-80
2022/01/11 11:34:09;;;;;;;0.00;0.00;;;1.50;99.90;;;;;;6108454;23;19994;-81
2022/01/11 11:36:37;;;;;;;0.00;0.00;;;1.50;99.90;;;;;;6133941;23;20009;-83
2022/01/11 11:39:11;;;;;;;0.00;0.00;;;1.50;99.90;;;;;;6135785;23;20074;-80
2022/01/11 11:41:39;;;;;;;0.00;0.00;;;1.60;99.90;;;;;;6102625;23;20000;-78
2022/01/11 11:44:11;;;;;;;0.00;0.00;;;1.50;99.90;;;;;;6134747;23;19994;-82
2022/01/11 11:47:00;;;;;;;0.00;0.00;;;1.50;99.90;;;;;;6134365;23;19990;-74
2022/01/11 11:49:50;;;;;;;0.00;0.00;;;1.60;99.90;;;;;;6134677;23;19995;-79
2022/01/11 11:52:22;;;;;;;0.00;0.00;;;1.60;99.90;;;;;;6135476;23;19996;-79
2022/01/11 11:55:01;;;;;;;0.00;0.00;;;1.60;99.90;;;;;;6108906;23;20012;-80
2022/01/11 11:57:31;;;;;;;0.00;0.00;;;1.60;99.90;;;;;;6108290;23;19993;-80
2022/01/11 12:00:05;;;;;;;0.00;0.00;;;1.60;99.90;;;;;;6109458;23;20036;-81
2022/01/11 12:02:34;;;;;;;0.00;0.00;;;1.60;99.90;;;;;;6134428;23;20260;-81
2022/01/11 12:05:00;;;;;;;0.00;0.00;;;1.60;99.90;;;;;;6109008;23;20324;-80
2022/01/11 12:07:38;;;;;;;0.00;0.00;;;1.60;99.90;;;;;;6109697;23;19994;-81
2022/01/11 12:10:06;;;;;;;0.00;0.00;;;1.60;99.90;;;;;;6109595;23;19994;-81
2022/01/11 12:12:49;;;;;;;0.00;0.00;;;1.70;99.90;;;;;;6108659;23;19998;-81
2022/01/11 12:15:36;;;;;;;0.00;0.00;;;1.70;99.90;;;;;;6109435;23;20049;-81
2022/01/11 12:18:04;;;;;;;0.00;0.00;;;1.70;99.90;;;;;;6134757;23;19997;-80
2022/01/11 12:20:39;;;;;;;;;;;1.80;99.90;;;;;;6148082;23;20014;-83
2022/01/11 12:23:10;;;;;;;0.00;0.00;;;1.80;99.90;;;;;;6163499;23;20104;-75
2022/01/11 12:25:43;;;;;;;0.00;0.00;;;1.80;99.90;;;;;;6162493;23;20051;-84
2022/01/11 12:28:22;;;;;;;0.00;0.00;;;1.80;99.90;;;;;;6163273;23;20241;-82
2022/01/11 12:30:48;;;;;;;0.00;0.00;;;1.70;99.90;;;;;;6164392;23;19994;-82
2022/01/11 12:33:18;;;;;;;0.00;0.00;;;1.80;99.90;;;;;;6187943;23;20020;-79
2022/01/11 12:35:55;;;;;;;0.00;0.00;;;1.80;99.90;;;;;;6162008;23;20199;-77
2022/01/11 12:38:23;;;;;;;0.00;0.00;;;1.80;99.90;;;;;;6162238;23;20276;-78
2022/01/11 12:40:49;;;;;;;0.00;0.00;;;1.80;99.90;;;;;;6187419;23;20049;-79
2022/01/11 12:43:36;;;;;;;0.00;0.00;;;1.80;99.90;;;;;;6164770;23;19996;-84
2022/01/11 12:46:08;;;;;;;0.00;0.00;;;1.70;99.90;;;;;;6164301;23;19990;-81
2022/01/11 12:48:47;;;;;;;0.00;0.00;;;1.80;99.90;;;;;;6163787;23;20045;-85
2022/01/11 12:51:18;;;;;;;;;;;1.80;99.90;;;;;;6187692;23;20335;-78
2022/01/11 12:53:44;;;;;;;;;;;1.80;99.90;;;;;;6162553;23;19896;-81
2022/01/11 12:56:10;;;;;;;;;;;1.80;99.90;;;;;;6165168;23;20189;-81
2022/01/11 12:58:36;;;;;;;;;;;1.80;99.90;;;;;;6162884;23;19904;-82
2022/01/11 13:01:14;;;;;;;;;;;1.90;99.90;;;;;;6164953;23;20076;-84
2022/01/11 13:03:57;;;;;;;;;;;1.90;99.90;;;;;;6163388;23;19896;-84
2022/01/11 13:06:23;;;;;;;;;;;1.90;99.90;;;;;;6163181;23;19983;-75
2022/01/11 13:08:57;;;;;;;;;;;1.80;99.90;;;;;;6162992;23;20178;-82